Time;durP1;ratioP1;P1;durP2;ratioP2;P2;SDS_P1;SDS_P2;PMS_P1;PMS_P2;Temp;Humidity;BMP_temperature;BMP_pressure;BME280_temperature;BME280_humidity;BME280_pressure;Samples;Min_cycle;Max_cycle;Signal;HPM_P1;HPM_P2
2022/06/19 00:02:20;;;;;;;2.92;2.45;;;;;;;17.54;62.41;100423.83;1752768;79;22276;-71
2022/06/19 00:04:51;;;;;;;3.20;2.50;;;;;;;17.55;62.29;100424.67;1752345;79;20977;-72
2022/06/19 00:07:18;;;;;;;4.05;2.50;;;;;;;17.55;62.23;100425.50;1762706;79;21040;-73
2022/06/19 00:09:44;;;;;;;3.33;2.35;;;;;;;17.56;62.18;100425.83;1781788;79;20961;-72
2022/06/19 00:12:11;;;;;;;2.42;2.22;;;;;;;17.54;62.07;100429.17;1773284;79;21455;-72
2022/06/19 00:14:37;;;;;;;2.98;2.62;;;;;;;17.52;61.99;100428.52;1739019;80;21993;-72
2022/06/19 00:17:06;;;;;;;4.00;2.58;;;;;;;17.49;61.96;100424.84;1784300;79;21027;-72
2022/06/19 00:19:33;;;;;;;3.02;2.37;;;;;;;17.49;61.88;100428.85;1760024;79;21046;-71
2022/06/19 00:22:01;;;;;;;2.90;2.37;;;;;;;17.46;61.82;100429.16;1772461;78;21090;-77
2022/06/19 00:24:29;;;;;;;2.42;2.22;;;;;;;17.43;61.77;100429.50;1777569;80;20996;-71
2022/06/19 00:26:57;;;;;;;3.22;2.30;;;;;;;17.40;61.74;100428.00;1776752;79;22870;-72
2022/06/19 00:29:23;;;;;;;6.42;2.40;;;;;;;17.37;61.69;100431.48;1773871;79;20984;-72
2022/06/19 00:31:51;;;;;;;2.33;2.12;;;;;;;17.35;61.62;100430.81;1786291;78;21047;-71
2022/06/19 00:34:18;;;;;;;4.83;1.90;;;;;;;17.34;61.56;100439.33;1773712;79;21044;-71
2022/06/19 00:36:49;;;;;;;2.87;2.00;;;;;;;17.34;61.29;100432.66;1773407;78;20977;-71
2022/06/19 00:39:13;;;;;;;4.47;2.02;;;;;;;17.37;61.22;100435.48;1803183;78;22130;-73
2022/06/19 00:41:40;;;;;;;3.05;2.30;;;;;;;17.38;61.10;100439.85;1774553;80;21033;-71
2022/06/19 00:44:10;;;;;;;2.70;2.47;;;;;;;17.39;61.04;100438.84;1774422;81;21001;-72
2022/06/19 00:46:45;;;;;;;2.80;2.33;;;;;;;17.38;61.18;100438.02;1776510;78;21063;-72
2022/06/19 00:49:23;;;;;;;4.87;2.67;;;;;;;17.39;61.34;100440.19;1777490;78;21098;-72
2022/06/19 00:51:57;;;;;;;3.95;2.85;;;;;;;17.38;61.50;100442.52;1763280;78;22252;-71
2022/06/19 00:54:23;;;;;;;4.00;3.15;;;;;;;17.37;61.64;100439.02;1782829;78;21384;-71
2022/06/19 00:56:51;;;;;;;3.42;2.58;;;;;;;17.39;61.86;100441.52;1757986;78;21063;-75
2022/06/19 00:59:18;;;;;;;4.15;2.87;;;;;;;17.40;61.94;100441.85;1792069;78;21048;-71
2022/06/19 01:01:45;;;;;;;6.17;2.98;;;;;;;17.40;62.23;100447.20;1764104;78;20949;-71
2022/06/19 01:04:17;;;;;;;3.55;2.98;;;;;;;17.35;62.61;100449.00;1777287;78;21878;-73
2022/06/19 01:06:44;;;;;;;4.12;3.70;;;;;;;17.33;62.67;100455.02;1777855;78;20942;-71
2022/06/19 01:09:13;;;;;;;4.05;3.33;;;;;;;17.30;63.01;100451.84;1741749;81;21025;-72
2022/06/19 01:11:39;;;;;;;5.72;3.70;;;;;;;17.26;63.30;100455.31;1744907;81;20978;-71
2022/06/19 01:14:10;;;;;;;4.78;3.42;;;;;;;17.27;63.35;100458.82;1747570;80;21036;-71
2022/06/19 01:16:37;;;;;;;4.92;3.25;;;;;;;17.26;63.50;100462.49;1744325;81;21818;-71
2022/06/19 01:19:06;;;;;;;4.30;3.45;;;;;;;17.25;63.53;100463.50;1743097;82;21351;-70
2022/06/19 01:21:47;;;;;;;4.70;3.70;;;;;;;17.25;63.57;100463.50;1740310;82;20951;-72
2022/06/19 01:24:22;;;;;;;4.00;3.58;;;;;;;17.21;63.67;100467.00;1728294;80;20981;-71
2022/06/19 01:26:51;;;;;;;6.83;3.80;;;;;;;17.19;63.83;100469.50;1719623;82;21485;-72
2022/06/19 01:29:19;;;;;;;4.45;4.05;;;;;;;17.10;63.89;100473.48;1744619;80;21940;-74
2022/06/19 01:31:54;;;;;;;5.05;3.85;;;;;;;17.02;63.94;100473.44;1779757;78;20973;-74
2022/06/19 01:34:36;;;;;;;4.40;4.00;;;;;;;16.95;63.96;100481.74;1763268;78;21424;-72
2022/06/19 01:37:12;;;;;;;4.70;4.20;;;;;;;16.84;64.02;100484.20;1771436;78;21100;-72
2022/06/19 01:39:50;;;;;;;5.17;3.98;;;;;;;16.72;64.15;100480.14;1779601;78;21084;-71
2022/06/19 01:42:17;;;;;;;4.28;3.87;;;;;;;16.62;64.26;100484.72;1771816;78;21819;-71
2022/06/19 01:44:44;;;;;;;4.53;4.00;;;;;;;16.53;64.41;100485.67;1772751;78;21113;-72
2022/06/19 01:47:11;;;;;;;5.85;4.20;;;;;;;16.43;64.50;100482.28;1778552;78;20988;-75
2022/06/19 01:49:41;;;;;;;4.60;4.10;;;;;;;16.33;64.63;100482.38;1775123;78;21344;-71
2022/06/19 01:52:08;;;;;;;4.05;3.65;;;;;;;16.26;64.74;100479.98;1780301;79;21060;-72
2022/06/19 01:54:43;;;;;;;4.10;3.70;;;;;;;16.16;64.80;100477.91;1780001;78;21816;-71
2022/06/19 01:57:11;;;;;;;4.30;3.83;;;;;;;16.08;64.88;100487.17;1762123;78;20993;-72
2022/06/19 01:59:39;;;;;;;6.03;4.17;;;;;;;16.01;65.07;100485.11;1778247;79;21021;-72
2022/06/19 02:02:08;;;;;;;4.53;4.12;;;;;;;15.94;65.24;100485.41;1773132;78;21475;-71
2022/06/19 02:04:34;;;;;;;4.70;4.30;;;;;;;15.86;65.42;100479.17;1769244;79;21456;-72
2022/06/19 02:07:06;;;;;;;5.80;4.62;;;;;;;15.80;65.56;100482.44;1762920;78;21927;-71
2022/06/19 02:09:33;;;;;;;5.30;4.30;;;;;;;15.76;65.64;100485.91;1772796;79;21008;-73
2022/06/19 02:12:02;;;;;;;5.50;4.60;;;;;;;15.72;65.79;100480.03;1779945;78;21074;-72
2022/06/19 02:14:29;;;;;;;5.28;4.78;;;;;;;15.68;65.96;100476.52;1789845;78;20984;-71
2022/06/19 02:16:58;;;;;;;5.12;4.60;;;;;;;15.62;66.13;100485.09;1775772;78;21029;-71
2022/06/19 02:19:24;;;;;;;5.37;4.67;;;;;;;15.57;66.36;100486.03;1760059;78;21940;-71
2022/06/19 02:21:53;;;;;;;6.37;4.90;;;;;;;15.54;66.56;100488.50;1762818;78;21008;-70
2022/06/19 02:24:23;;;;;;;5.75;5.17;;;;;;;15.53;66.66;100482.81;1780276;78;21452;-71
2022/06/19 02:26:51;;;;;;;6.00;5.40;;;;;;;15.55;66.74;100492.00;1779602;78;21008;-72
2022/06/19 02:29:20;;;;;;;5.90;5.40;;;;;;;15.56;66.89;100484.36;1776258;78;21000;-71
2022/06/19 02:31:51;;;;;;;6.10;5.45;;;;;;;15.55;67.01;100485.34;1771325;78;21838;-70
2022/06/19 02:34:26;;;;;;;7.62;5.30;;;;;;;15.51;67.06;100483.46;1780578;78;21043;-71
2022/06/19 02:37:00;;;;;;;5.47;4.97;;;;;;;15.51;67.17;100482.13;1789936;78;20974;-71
2022/06/19 02:40:11;;;;;;;5.33;4.83;;;;;;;15.50;67.25;100483.63;1779607;78;21095;-71
2022/06/19 02:42:45;;;;;;;6.45;5.50;;;;;;;15.44;67.34;100483.71;1777775;78;21044;-72
2022/06/19 02:45:18;;;;;;;6.53;5.42;;;;;;;15.41;67.54;100485.35;1781541;78;21044;-71
2022/06/19 02:47:45;;;;;;;6.15;5.55;;;;;;;15.39;67.67;100484.18;1777412;78;20957;-71
2022/06/19 02:50:16;;;;;;;6.00;5.50;;;;;;;15.40;67.83;100489.00;1774790;78;20953;-73
2022/06/19 02:52:43;;;;;;;7.12;5.67;;;;;;;15.39;68.00;100496.65;1771560;78;21080;-71
2022/06/19 02:55:10;;;;;;;6.97;5.90;;;;;;;15.39;68.10;100490.83;1778415;78;21001;-78
2022/06/19 02:57:36;;;;;;;8.63;6.45;;;;;;;15.40;68.20;100499.16;1771614;78;22635;-71
2022/06/19 03:00:09;;;;;;;7.10;5.85;;;;;;;15.43;68.25;100492.20;1764007;79;20970;-72
2022/06/19 03:02:36;;;;;;;7.10;6.10;;;;;;;15.45;68.31;100505.37;1753694;78;20962;-72
2022/06/19 03:05:04;;;;;;;8.00;6.40;;;;;;;15.47;68.41;100506.06;1761840;78;20981;-72
2022/06/19 03:07:31;;;;;;;7.35;5.90;;;;;;;15.49;68.50;100497.92;1755672;80;21484;-74
2022/06/19 03:09:58;;;;;;;6.92;6.10;;;;;;;15.53;68.58;100503.27;1777570;78;21884;-73
2022/06/19 03:12:25;;;;;;;7.45;5.78;;;;;;;15.55;68.61;100502.16;1781665;79;20920;-72
2022/06/19 03:14:51;;;;;;;6.12;5.53;;;;;;;15.59;68.70;100508.84;1785856;79;20984;-73
2022/06/19 03:17:21;;;;;;;6.28;5.67;;;;;;;15.63;68.73;100505.41;1766128;79;20986;-72
2022/06/19 03:19:48;;;;;;;6.05;5.45;;;;;;;15.66;68.79;100505.13;1765995;78;20993;-72
2022/06/19 03:22:15;;;;;;;6.47;5.15;;;;;;;15.69;68.82;100513.63;1780320;78;22275;-72
2022/06/19 03:24:42;;;;;;;6.00;5.45;;;;;;;15.71;68.92;100508.98;1778843;79;21415;-76
2022/06/19 03:27:09;;;;;;;6.83;5.42;;;;;;;15.72;69.03;100513.33;1748638;80;21021;-72
2022/06/19 03:29:36;;;;;;;5.80;5.30;;;;;;;15.75;69.14;100521.53;1757839;81;21000;-72
2022/06/19 03:32:03;;;;;;;8.25;5.53;;;;;;;15.78;69.20;100524.38;1755115;81;20996;-72
2022/06/19 03:34:31;;;;;;;8.30;5.17;;;;;;;15.82;69.27;100521.23;1751925;82;21806;-72
2022/06/19 03:36:58;;;;;;;5.97;5.10;;;;;;;15.87;69.30;100517.64;1751891;81;21048;-72
2022/06/19 03:39:25;;;;;;;5.33;4.83;;;;;;;15.90;69.35;100516.48;1753684;80;20977;-72
2022/06/19 03:41:53;;;;;;;6.42;5.83;;;;;;;15.94;69.39;100524.04;1757593;81;20976;-72
2022/06/19 03:44:19;;;;;;;8.58;5.47;;;;;;;16.01;69.40;100523.75;1773046;80;20988;-72
2022/06/19 03:46:46;;;;;;;7.22;6.00;;;;;;;16.11;69.47;100524.16;1788698;80;21775;-72
2022/06/19 03:49:12;;;;;;;6.83;6.17;;;;;;;16.18;69.47;100517.23;1786403;80;20940;-72
2022/06/19 03:51:39;;;;;;;6.35;5.75;;;;;;;16.25;69.42;100515.63;1758916;80;21081;-71
2022/06/19 03:54:07;;;;;;;6.90;6.10;;;;;;;16.33;69.31;100515.70;1754554;80;21068;-71
2022/06/19 03:56:35;;;;;;;7.10;6.22;;;;;;;16.42;69.21;100515.27;1779289;80;21502;-71
2022/06/19 03:59:01;;;;;;;6.72;6.08;;;;;;;16.48;69.18;100512.79;1774428;80;21857;-71
2022/06/19 04:01:32;;;;;;;10.03;7.25;;;;;;;16.58;69.11;100508.69;1769313;80;21008;-71
2022/06/19 04:03:59;;;;;;;7.97;7.28;;;;;;;16.67;69.07;100506.91;1752800;80;20972;-71
2022/06/19 04:06:29;;;;;;;7.78;7.08;;;;;;;16.76;68.98;100509.49;1774407;80;20976;-75
2022/06/19 04:08:58;;;;;;;9.20;7.60;;;;;;;16.85;69.01;100505.04;1774233;80;21008;-71
2022/06/19 04:11:28;;;;;;;8.03;7.22;;;;;;;16.93;69.14;100510.42;1736726;81;21359;-74
2022/06/19 04:13:54;;;;;;;9.68;7.37;;;;;;;17.00;69.26;100503.95;1779166;80;20952;-71
2022/06/19 04:16:26;;;;;;;7.58;6.87;;;;;;;17.06;69.29;100506.80;1780701;80;21459;-71
2022/06/19 04:18:54;;;;;;;8.00;7.08;;;;;;;17.15;69.40;100509.84;1777888;80;20953;-71
2022/06/19 04:21:25;;;;;;;7.42;6.78;;;;;;;17.25;69.33;100508.88;1770552;80;20988;-71
2022/06/19 04:23:54;;;;;;;7.30;6.53;;;;;;;17.34;69.31;100507.91;1770454;80;21899;-71
2022/06/19 04:26:21;;;;;;;7.28;6.53;;;;;;;17.44;69.22;100507.27;1780402;80;21015;-73
2022/06/19 04:28:48;;;;;;;6.85;6.25;;;;;;;17.55;69.13;100502.12;1711893;83;21057;-71
2022/06/19 04:31:16;;;;;;;8.60;6.33;;;;;;;17.65;69.01;100508.14;1731067;81;21410;-72
2022/06/19 04:33:43;;;;;;;6.25;5.65;;;;;;;17.77;68.93;100512.73;1737641;81;21125;-71
2022/06/19 04:36:13;;;;;;;7.83;6.37;;;;;;;17.88;68.65;100516.41;1749039;81;22228;-71
2022/06/19 04:38:41;;;;;;;6.10;5.50;;;;;;;17.99;68.38;100512.91;1742021;81;20990;-72
2022/06/19 04:41:17;;;;;;;6.62;5.90;;;;;;;18.10;68.02;100509.56;1731959;81;21003;-71
2022/06/19 04:43:44;;;;;;;6.42;5.37;;;;;;;18.21;67.68;100511.39;1729007;81;21011;-71
2022/06/19 04:46:10;;;;;;;9.78;5.67;;;;;;;18.33;67.25;100510.55;1733710;81;21033;-71
2022/06/19 04:48:37;;;;;;;5.97;5.37;;;;;;;18.44;67.01;100512.06;1740759;81;21970;-73
2022/06/19 04:51:06;;;;;;;6.08;5.20;;;;;;;18.56;66.65;100505.34;1721789;82;21477;-71
2022/06/19 04:53:33;;;;;;;5.92;5.40;;;;;;;18.67;66.38;100506.35;1733659;81;21052;-71
2022/06/19 04:56:00;;;;;;;5.58;5.08;;;;;;;18.77;66.14;100501.64;1719638;83;21026;-71
2022/06/19 04:58:26;;;;;;;6.15;5.15;;;;;;;18.88;65.94;100509.30;1719544;83;21049;-72
2022/06/19 05:00:53;;;;;;;5.58;5.08;;;;;;;19.00;65.52;100504.91;1732298;82;22613;-71
2022/06/19 05:03:20;;;;;;;5.97;5.35;;;;;;;19.11;65.17;100505.89;1726790;81;21001;-71
2022/06/19 05:05:48;;;;;;;7.10;5.58;;;;;;;19.25;65.03;100501.13;1727397;82;21003;-71
2022/06/19 05:08:15;;;;;;;5.87;5.10;;;;;;;19.36;64.73;100511.44;1722880;81;21012;-71
2022/06/19 05:10:42;;;;;;;5.60;5.08;;;;;;;19.47;64.61;100508.87;1731505;81;21084;-71
2022/06/19 05:13:21;;;;;;;6.80;5.10;;;;;;;19.59;64.23;100515.55;1732453;82;21830;-73
2022/06/19 05:15:49;;;;;;;5.80;5.30;;;;;;;19.70;63.96;100517.82;1722174;82;21501;-72
2022/06/19 05:18:17;;;;;;;5.15;4.65;;;;;;;19.87;63.44;100515.00;1719683;82;21440;-71
2022/06/19 05:20:44;;;;;;;5.10;4.70;;;;;;;20.00;62.91;100517.44;1730390;81;21087;-71
2022/06/19 05:23:11;;;;;;;5.55;5.05;;;;;;;20.15;62.57;100511.27;1721509;81;21020;-72
2022/06/19 05:25:37;;;;;;;5.58;5.05;;;;;;;20.31;62.76;100511.14;1718558;82;22091;-72
2022/06/19 05:28:04;;;;;;;5.25;4.75;;;;;;;20.46;62.25;100504.47;1718746;82;20965;-72
2022/06/19 05:30:31;;;;;;;5.25;3.77;;;;;;;20.59;61.47;100512.75;1719276;82;21009;-71
2022/06/19 05:32:57;;;;;;;3.30;3.00;;;;;;;20.71;60.30;100519.32;1719969;82;21001;-71
2022/06/19 05:35:24;;;;;;;4.30;3.20;;;;;;;20.84;58.34;100512.82;1720968;81;20953;-73
2022/06/19 05:37:52;;;;;;;4.12;3.37;;;;;;;21.00;57.51;100514.97;1717373;82;21902;-74
2022/06/19 05:40:19;;;;;;;4.05;3.15;;;;;;;21.16;56.75;100514.78;1725584;82;21052;-71
2022/06/19 05:42:48;;;;;;;4.03;3.20;;;;;;;21.32;56.72;100520.47;1717965;83;21455;-72
2022/06/19 05:45:15;;;;;;;3.67;3.30;;;;;;;21.43;56.51;100513.30;1740238;82;21042;-71
2022/06/19 05:47:41;;;;;;;4.92;3.20;;;;;;;21.53;55.42;100518.37;1723111;81;21456;-70
2022/06/19 05:50:10;;;;;;;5.15;2.40;;;;;;;21.63;55.09;100519.72;1697604;83;22055;-72
2022/06/19 05:52:36;;;;;;;3.47;1.80;;;;;;;21.74;53.53;100518.90;1719874;82;21440;-72
2022/06/19 05:55:04;;;;;;;2.45;1.60;;;;;;;21.87;51.76;100525.75;1721662;82;21044;-70
2022/06/19 05:57:31;;;;;;;2.40;1.50;;;;;;;21.98;47.93;100530.61;1718690;83;21443;-70
2022/06/19 05:59:57;;;;;;;2.25;1.60;;;;;;;22.08;47.10;100528.97;1718631;83;21513;-70
2022/06/19 06:02:26;;;;;;;2.60;1.57;;;;;;;22.20;47.15;100525.59;1722017;82;22614;-71
2022/06/19 06:04:53;;;;;;;5.03;1.55;;;;;;;22.32;45.89;100525.06;1719643;82;20945;-71
2022/06/19 06:07:21;;;;;;;2.80;1.32;;;;;;;22.45;45.24;100533.23;1718815;83;21106;-71
2022/06/19 06:09:48;;;;;;;3.92;1.60;;;;;;;22.55;44.43;100531.02;1723811;82;21450;-70
2022/06/19 06:12:15;;;;;;;2.85;1.67;;;;;;;22.63;43.91;100539.47;1713355;82;20954;-71
2022/06/19 06:14:42;;;;;;;3.08;1.60;;;;;;;22.70;44.05;100535.80;1713811;83;22033;-70
2022/06/19 06:17:09;;;;;;;2.20;1.32;;;;;;;22.77;44.22;100531.27;1717857;83;21021;-71
2022/06/19 06:19:36;;;;;;;2.20;1.45;;;;;;;22.89;43.31;100528.91;1720021;81;21237;-71
2022/06/19 06:22:04;;;;;;;4.15;2.00;;;;;;;22.97;42.11;100528.76;1711718;83;21047;-71
2022/06/19 06:24:31;;;;;;;4.42;1.67;;;;;;;23.07;42.04;100532.44;1717594;81;21059;-70
2022/06/19 06:26:59;;;;;;;3.30;1.40;;;;;;;23.16;41.69;100535.25;1716694;83;21839;-73
2022/06/19 06:29:26;;;;;;;2.05;1.47;;;;;;;23.27;40.38;100525.80;1731189;82;20987;-71
2022/06/19 06:31:53;;;;;;;5.50;1.42;;;;;;;23.31;39.90;100519.78;1740021;81;21360;-71
2022/06/19 06:34:19;;;;;;;3.90;1.37;;;;;;;23.36;39.51;100519.20;1741112;81;21705;-71
2022/06/19 06:36:45;;;;;;;1.92;1.10;;;;;;;23.46;39.40;100518.30;1740553;82;21424;-70
2022/06/19 06:39:12;;;;;;;1.62;1.30;;;;;;;23.58;38.81;100517.19;1727812;80;21476;-71
2022/06/19 06:41:39;;;;;;;3.52;1.25;;;;;;;23.67;38.10;100516.83;1726124;81;21443;-73
2022/06/19 06:44:06;;;;;;;1.42;1.10;;;;;;;23.70;37.56;100512.88;1733763;80;20960;-73
2022/06/19 06:46:34;;;;;;;4.00;1.22;;;;;;;23.77;36.78;100516.44;1740007;82;21440;-73
2022/06/19 06:49:05;;;;;;;3.90;1.20;;;;;;;23.80;35.92;100523.28;1740253;82;21052;-73
2022/06/19 06:51:32;;;;;;;1.77;1.40;;;;;;;23.83;36.69;100518.81;1739499;81;21874;-72
2022/06/19 06:53:58;;;;;;;1.87;1.40;;;;;;;23.89;37.21;100525.58;1759420;80;20960;-73
2022/06/19 06:56:25;;;;;;;1.20;1.07;;;;;;;23.96;37.13;100529.13;1773625;80;21001;-73
2022/06/19 06:58:53;;;;;;;1.67;0.93;;;;;;;24.05;35.15;100526.23;1781695;80;20997;-74
2022/06/19 07:01:22;;;;;;;3.67;0.90;;;;;;;24.12;34.42;100528.40;1782742;78;20976;-73
2022/06/19 07:03:54;;;;;;;1.65;1.17;;;;;;;24.16;34.08;100525.09;1781764;80;22562;-73
2022/06/19 07:06:24;;;;;;;6.53;1.05;;;;;;;24.22;34.92;100522.93;1771199;80;20991;-74
2022/06/19 07:08:50;;;;;;;3.05;1.00;;;;;;;24.31;34.18;100523.56;1780787;80;20989;-73
2022/06/19 07:11:27;;;;;;;1.10;1.00;;;;;;;24.39;32.70;100522.52;1780827;78;21011;-73
2022/06/19 07:13:54;;;;;;;1.20;1.10;;;;;;;24.44;32.60;100520.05;1780569;80;20964;-73
2022/06/19 07:16:21;;;;;;;2.92;1.20;;;;;;;24.45;33.51;100517.12;1780143;80;21914;-72
2022/06/19 07:18:47;;;;;;;1.42;1.10;;;;;;;24.53;33.60;100521.49;1780577;78;21019;-73
2022/06/19 07:21:13;;;;;;;1.40;1.15;;;;;;;24.62;33.38;100508.08;1781261;78;20989;-70
2022/06/19 07:23:40;;;;;;;5.35;1.35;;;;;;;24.76;33.50;100513.75;1779078;78;21005;-73
2022/06/19 07:26:11;;;;;;;1.35;1.00;;;;;;;24.90;33.41;100511.87;1772743;80;21017;-71
2022/06/19 07:28:39;;;;;;;1.72;1.10;;;;;;;25.02;32.82;100507.48;1778681;80;21939;-72
2022/06/19 07:31:06;;;;;;;1.20;1.10;;;;;;;25.10;32.41;100500.50;1780713;78;20953;-71
2022/06/19 07:33:35;;;;;;;1.67;1.57;;;;;;;25.12;31.01;100501.64;1800308;78;21004;-73
2022/06/19 07:36:03;;;;;;;8.00;6.72;;;;;;;25.14;30.91;100501.41;1791979;78;20973;-71
2022/06/19 07:38:29;;;;;;;2.22;1.20;;;;;;;25.14;30.70;100506.82;1780200;80;21051;-71
2022/06/19 07:40:56;;;;;;;2.52;1.05;;;;;;;25.12;30.96;100502.98;1770788;79;21964;-72
2022/06/19 07:43:22;;;;;;;4.15;1.70;;;;;;;25.21;32.03;100496.83;1781787;78;20999;-72
2022/06/19 07:45:49;;;;;;;3.05;2.75;;;;;;;25.37;31.67;100494.44;1781704;78;21040;-72
2022/06/19 07:51:02;;;;;;;2.00;1.55;;;;;;;25.67;30.87;100499.26;1778113;80;20955;-72
2022/06/19 07:53:29;;;;;;;4.28;3.87;;;;;;;25.67;30.06;100500.12;1781286;78;21886;-70
2022/06/19 07:55:56;;;;;;;1.80;1.20;;;;;;;25.63;29.94;100496.17;1796996;78;20876;-71
2022/06/19 07:58:23;;;;;;;2.70;0.85;;;;;;;25.59;30.16;100499.02;1778209;80;20961;-71
2022/06/19 08:00:50;;;;;;;1.20;0.90;;;;;;;25.61;30.16;100492.03;1781085;78;21426;-73
2022/06/19 08:03:18;;;;;;;1.45;0.85;;;;;;;25.57;30.34;100488.91;1785604;78;21027;-72
2022/06/19 08:05:46;;;;;;;0.80;0.80;;;;;;;25.59;30.10;100491.43;1785998;78;21828;-71
2022/06/19 08:08:23;;;;;;;4.33;0.90;;;;;;;25.64;29.95;100497.83;1779768;80;21043;-74
2022/06/19 08:10:51;;;;;;;2.80;1.00;;;;;;;25.64;30.22;100491.06;1783483;78;21462;-74
2022/06/19 08:13:24;;;;;;;1.72;0.90;;;;;;;25.65;30.06;100488.66;1777432;79;21001;-70
2022/06/19 08:15:55;;;;;;;0.93;0.72;;;;;;;25.72;30.09;100480.55;1741596;80;21547;-72
2022/06/19 08:18:21;;;;;;;1.67;0.80;;;;;;;25.86;30.32;100478.03;1717720;81;21721;-73
2022/06/19 08:20:49;;;;;;;1.15;0.72;;;;;;;26.01;29.92;100475.02;1728171;81;21055;-74
2022/06/19 08:23:17;;;;;;;0.72;0.72;;;;;;;26.04;30.04;100471.87;1723228;80;21647;-73
2022/06/19 08:25:45;;;;;;;1.55;0.78;;;;;;;26.11;30.18;100470.47;1737586;80;21017;-77
2022/06/19 08:28:15;;;;;;;2.33;0.85;;;;;;;26.11;30.22;100470.47;1740997;81;21043;-72
2022/06/19 08:30:42;;;;;;;2.98;1.50;;;;;;;26.13;30.54;100465.66;1756021;80;22530;-77
2022/06/19 08:33:10;;;;;;;1.50;1.02;;;;;;;26.19;30.53;100467.48;1718571;81;21514;-71
2022/06/19 08:35:45;;;;;;;2.27;0.93;;;;;;;26.33;30.80;100466.30;1720144;80;21024;-72
2022/06/19 08:38:20;;;;;;;1.57;1.22;;;;;;;26.57;30.52;100461.13;1750626;80;21084;-73
2022/06/19 08:41:31;;;;;;;2.52;1.00;;;;;;;26.80;30.01;100468.05;1753983;80;21028;-72
2022/06/19 08:44:33;;;;;;;1.22;0.90;;;;;;;26.92;29.54;100466.75;1759016;80;22436;-75
2022/06/19 08:47:32;;;;;;;2.83;0.90;;;;;;;26.88;29.54;100466.92;1752893;80;21043;-77
2022/06/19 08:50:26;;;;;;;2.92;1.82;;;;;;;27.00;30.11;100464.56;1739135;81;21078;-73
2022/06/19 08:53:01;;;;;;;2.95;2.35;;;;;;;27.24;29.79;100462.84;1749889;81;21104;-71
2022/06/19 08:55:44;;;;;;;2.83;1.10;;;;;;;27.42;29.81;100469.30;1745744;80;21062;-72
2022/06/19 08:58:31;;;;;;;1.90;0.80;;;;;;;27.46;29.66;100456.91;1749609;80;21854;-73
2022/06/19 09:01:09;;;;;;;2.50;0.93;;;;;;;27.49;28.92;100459.98;1741598;80;21020;-72
2022/06/19 09:06:41;;;;;;;1.00;0.85;;;;;;;27.30;29.76;100449.70;1700127;80;21538;-72
2022/06/19 09:09:41;;;;;;;0.80;0.80;;;;;;;27.50;29.79;100449.95;1745560;81;21004;-72
2022/06/19 09:12:54;;;;;;;2.75;1.50;;;;;;;27.65;28.18;100451.72;1737825;82;22248;-71
2022/06/19 09:15:35;;;;;;;1.20;1.00;;;;;;;27.65;28.48;100446.30;1749382;80;21538;-72
2022/06/19 09:18:09;;;;;;;1.32;1.00;;;;;;;27.67;28.86;100450.98;1748862;80;21030;-72
2022/06/19 09:20:44;;;;;;;1.35;0.80;;;;;;;27.68;28.51;100452.64;1756761;80;21216;-71
2022/06/19 09:23:42;;;;;;;2.08;0.88;;;;;;;27.61;28.46;100443.23;1747797;80;21099;-74
2022/06/19 09:26:34;;;;;;;3.17;0.93;;;;;;;27.68;29.41;100439.06;1721562;80;22443;-71
2022/06/19 09:29:09;;;;;;;1.82;1.37;;;;;;;27.93;29.48;100447.86;1743682;81;21590;-69
2022/06/19 09:31:45;;;;;;;3.00;1.07;;;;;;;28.21;29.45;100445.00;1730630;82;21032;-73
2022/06/19 09:34:24;;;;;;;0.98;0.93;;;;;;;28.40;28.50;100445.20;1724884;82;21024;-70
2022/06/19 09:37:18;;;;;;;2.65;0.80;;;;;;;28.48;27.95;100438.05;1747125;82;21429;-70
2022/06/19 09:40:20;;;;;;;2.45;0.80;;;;;;;28.50;28.29;100440.53;1749246;82;21851;-67
2022/06/19 09:43:08;;;;;;;2.55;0.78;;;;;;;28.65;28.22;100444.09;1746521;80;21028;-68
2022/06/19 09:45:46;;;;;;;0.82;0.70;;;;;;;28.85;27.05;100444.52;1725721;80;21428;-70
2022/06/19 09:48:40;;;;;;;1.05;0.70;;;;;;;28.76;25.89;100448.70;1729821;82;21075;-71
2022/06/19 09:51:14;;;;;;;0.82;0.70;;;;;;;28.69;27.15;100441.20;1747636;80;21051;-70
2022/06/19 09:54:07;;;;;;;2.45;0.90;;;;;;;28.85;26.61;100442.34;1706871;82;21870;-72
2022/06/19 09:56:55;;;;;;;1.75;0.70;;;;;;;28.88;26.67;100432.36;1740421;82;21096;-70
2022/06/19 09:59:36;;;;;;;0.70;0.70;;;;;;;28.88;27.60;100429.11;1746403;81;21039;-70
2022/06/19 10:02:14;;;;;;;0.75;0.60;;;;;;;28.98;26.00;100430.70;1742526;81;21511;-70
2022/06/19 10:04:51;;;;;;;4.70;2.95;;;;;;;28.98;26.75;100433.95;1742385;81;21099;-72
2022/06/19 10:07:29;;;;;;;3.08;2.55;;;;;;;29.15;26.36;100427.22;1748616;81;21792;-72
2022/06/19 10:10:02;;;;;;;2.50;1.90;;;;;;;29.38;26.39;100431.73;1717974;82;21000;-72
2022/06/19 10:12:39;;;;;;;1.47;0.80;;;;;;;29.54;26.35;100424.98;1748428;80;21421;-72
2022/06/19 10:15:19;;;;;;;0.57;0.57;;;;;;;29.73;25.44;100426.13;1749431;82;21559;-71
2022/06/19 10:17:57;;;;;;;1.22;0.60;;;;;;;29.90;25.52;100424.20;1755577;81;21062;-70
2022/06/19 10:20:31;;;;;;;6.85;6.22;;;;;;;29.90;25.52;100424.20;1750657;80;21754;-69
2022/06/19 10:23:28;;;;;;;2.12;1.92;;;;;;;30.07;26.07;100425.59;1728061;80;21099;-71
2022/06/19 10:26:29;;;;;;;2.05;0.93;;;;;;;30.28;25.04;100422.64;1753381;80;21028;-71
2022/06/19 10:29:30;;;;;;;2.22;0.82;;;;;;;30.22;25.12;100421.75;1752163;80;21091;-70
2022/06/19 10:32:06;;;;;;;8.58;7.78;;;;;;;30.31;26.40;100422.16;1749365;82;21158;-70
2022/06/19 10:34:59;;;;;;;2.75;1.50;;;;;;;30.60;26.33;100413.28;1729218;80;22509;-70
2022/06/19 10:37:41;;;;;;;16.17;14.35;;;;;;;30.81;25.78;100413.03;1742988;82;21057;-71
2022/06/19 10:40:46;;;;;;;3.33;2.92;;;;;;;30.96;25.84;100407.73;1746147;81;21028;-71
2022/06/19 10:43:44;;;;;;;1.65;1.25;;;;;;;31.12;25.12;100412.30;1726952;80;21086;-70
2022/06/19 10:46:11;;;;;;;2.00;0.95;;;;;;;31.18;25.21;100408.55;1714578;83;21028;-72
2022/06/19 10:49:04;;;;;;;1.17;0.88;;;;;;;31.32;25.65;100415.27;1737444;81;21898;-72
2022/06/19 10:52:03;;;;;;;1.30;1.07;;;;;;;31.40;25.63;100416.70;1746961;80;21019;-73
2022/06/19 10:54:51;;;;;;;5.10;4.70;;;;;;;31.45;24.87;100414.01;1741877;80;21077;-72
2022/06/19 10:57:26;;;;;;;5.70;4.60;;;;;;;31.53;25.25;100414.09;1749822;82;21126;-72
2022/06/19 10:59:53;;;;;;;1.70;1.35;;;;;;;31.58;24.93;100413.61;1749160;80;20988;-73
2022/06/19 11:05:33;;;;;;;2.20;0.90;;;;;;;31.23;25.04;100415.44;1751803;80;21018;-71
2022/06/19 11:08:00;;;;;;;2.70;1.15;;;;;;;31.14;25.40;100410.66;1753170;81;21495;-69
2022/06/19 11:10:43;;;;;;;3.55;1.10;;;;;;;31.15;25.38;100398.67;1752740;80;21535;-69
2022/06/19 11:13:09;;;;;;;1.92;1.20;;;;;;;31.09;25.66;100395.08;1749291;82;21024;-71
2022/06/19 11:15:47;;;;;;;1.67;1.07;;;;;;;31.16;25.38;100391.59;1750989;80;21078;-72
2022/06/19 11:18:25;;;;;;;1.75;1.30;;;;;;;31.23;25.48;100399.61;1748674;80;21029;-71
2022/06/19 11:21:02;;;;;;;1.45;1.20;;;;;;;31.27;25.52;100393.39;1744532;81;21056;-71
2022/06/19 11:23:36;;;;;;;1.27;1.10;;;;;;;31.44;26.43;100392.44;1722924;82;21023;-70
2022/06/19 11:26:18;;;;;;;1.50;1.32;;;;;;;31.70;25.88;100391.58;1731476;80;22041;-69
2022/06/19 11:29:03;;;;;;;1.63;1.20;;;;;;;31.96;25.24;100394.55;1745084;80;21893;-70
2022/06/19 11:31:59;;;;;;;1.20;1.10;;;;;;;32.24;25.31;100391.45;1743086;80;21286;-71
2022/06/19 11:34:44;;;;;;;3.20;2.92;;;;;;;32.58;25.73;100389.17;1745373;80;21051;-70
2022/06/19 11:37:22;;;;;;;3.15;2.70;;;;;;;32.84;25.21;100392.05;1722311;80;21190;-77
2022/06/19 11:39:57;;;;;;;3.00;2.37;;;;;;;33.11;25.46;100393.22;1736587;82;21047;-70
2022/06/19 11:42:29;;;;;;;2.33;1.82;;;;;;;33.30;25.02;100391.06;1748177;80;22543;-69
2022/06/19 11:45:04;;;;;;;3.37;3.08;;;;;;;33.43;25.09;100395.76;1752823;81;21011;-70
2022/06/19 11:47:39;;;;;;;2.47;1.20;;;;;;;33.66;25.43;100402.60;1754996;81;21034;-70
2022/06/19 11:50:25;;;;;;;2.27;1.15;;;;;;;33.86;24.93;100402.04;1749874;80;21012;-69
2022/06/19 11:53:00;;;;;;;2.60;1.02;;;;;;;33.72;23.93;100407.00;1742782;80;21548;-69
2022/06/19 11:55:32;;;;;;;5.58;1.30;;;;;;;33.06;24.02;100409.62;1747026;80;22643;-75
2022/06/19 11:58:19;;;;;;;1.82;1.20;;;;;;;32.33;25.04;100407.66;1746891;80;20987;-72